Time;durP1;ratioP1;P1;durP2;ratioP2;P2;SDS_P1;SDS_P2;PMS_P1;PMS_P2;Temp;Humidity;BMP_temperature;BMP_pressure;BME280_temperature;BME280_humidity;BME280_pressure;Samples;Min_cycle;Max_cycle;Signal;HPM_P1;HPM_P2
2023/11/01 00:01:13;;;;;;;;;;;9.20;99.90;;;;;;5075481;28;20467;-76
2023/11/01 00:03:39;;;;;;;3.58;0.68;;;9.20;99.90;;;;;;5074900;28;19990;-76
2023/11/01 00:06:05;;;;;;;;;;;9.20;99.90;;;;;;5073476;28;20058;-77
2023/11/01 00:08:30;;;;;;;8.02;0.93;;;9.30;99.90;;;;;;5075522;28;19908;-77
2023/11/01 00:10:56;;;;;;;;;;;9.30;99.90;;;;;;5074271;28;20050;-76
2023/11/01 00:13:22;;;;;;;4.50;0.75;;;9.30;99.90;;;;;;5074680;28;19904;-75
2023/11/01 00:15:47;;;;;;;;;;;9.30;99.90;;;;;;5073431;28;20035;-76
2023/11/01 00:18:13;;;;;;;5.93;1.77;;;9.30;99.90;;;;;;5074891;28;19935;-76
2023/11/01 00:20:38;;;;;;;;;;;9.20;99.90;;;;;;5073809;28;20032;-76
2023/11/01 00:23:04;;;;;;;2.35;0.70;;;9.20;99.90;;;;;;5072976;28;19908;-76
2023/11/01 00:25:29;;;;;;;;;;;9.20;99.90;;;;;;5061031;28;20021;-76
2023/11/01 00:27:55;;;;;;;4.25;0.80;;;9.20;99.90;;;;;;5055382;28;20535;-77
2023/11/01 00:30:21;;;;;;;;;;;9.20;99.90;;;;;;5057269;28;20037;-76
2023/11/01 00:32:46;;;;;;;2.10;0.82;;;9.20;99.90;;;;;;5053863;28;20224;-76
2023/11/01 00:35:12;;;;;;;;;;;9.10;99.90;;;;;;5052531;28;20029;-76
2023/11/01 00:37:37;;;;;;;1.20;0.60;;;9.10;99.90;;;;;;5053455;28;20015;-76
2023/11/01 00:40:03;;;;;;;;;;;9.10;99.90;;;;;;5053771;28;20180;-77
2023/11/01 00:42:29;;;;;;;1.25;0.57;;;9.20;99.90;;;;;;5052255;28;19943;-76
2023/11/01 00:44:54;;;;;;;;;;;9.10;99.90;;;;;;5053020;28;20064;-76
2023/11/01 00:47:20;;;;;;;4.10;1.40;;;9.20;99.90;;;;;;5051438;28;19914;-76
2023/11/01 00:49:46;;;;;;;;;;;9.20;99.90;;;;;;5053396;28;20083;-76
2023/11/01 00:52:11;;;;;;;3.08;1.42;;;9.20;99.90;;;;;;5051193;28;19913;-75
2023/11/01 00:54:37;;;;;;;;;;;9.30;99.90;;;;;;5051716;28;20039;-76
2023/11/01 00:57:03;;;;;;;4.63;1.17;;;9.40;99.90;;;;;;5052471;28;19915;-77
2023/11/01 00:59:28;;;;;;;;;;;9.40;99.90;;;;;;5053114;28;20079;-77
2023/11/01 01:01:54;;;;;;;6.35;1.70;;;9.40;99.90;;;;;;5051364;28;20016;-76
2023/11/01 01:04:19;;;;;;;;;;;9.50;99.90;;;;;;5052109;28;20179;-76
2023/11/01 01:06:45;;;;;;;2.78;1.20;;;9.50;99.90;;;;;;5051348;28;20289;-76
2023/11/01 01:09:12;;;;;;;;;;;9.50;99.90;;;;;;5053186;28;20025;-76
2023/11/01 01:11:38;;;;;;;3.05;1.10;;;9.60;99.90;;;;;;5051639;28;19972;-76
2023/11/01 01:14:04;;;;;;;3.22;1.30;;;9.50;99.90;;;;;;5052900;28;20066;-76
2023/11/01 01:16:29;;;;;;;;;;;9.50;99.90;;;;;;5051353;28;20021;-75
2023/11/01 01:18:55;;;;;;;3.03;1.15;;;9.60;99.90;;;;;;5052351;28;20358;-76
2023/11/01 01:21:20;;;;;;;;;;;9.50;99.90;;;;;;5052841;28;20033;-75
2023/11/01 01:23:46;;;;;;;3.20;1.20;;;9.50;99.90;;;;;;5051351;28;19996;-76
2023/11/01 01:26:12;;;;;;;;;;;9.60;99.90;;;;;;5051236;28;20132;-75
2023/11/01 01:28:38;;;;;;;2.00;1.00;;;9.60;99.90;;;;;;5052260;28;19958;-77
2023/11/01 01:31:04;;;;;;;2.22;1.17;;;9.50;99.90;;;;;;5067295;28;20028;-77
2023/11/01 01:33:30;;;;;;;3.70;1.02;;;9.60;99.90;;;;;;5063519;28;20030;-77
2023/11/01 01:35:55;;;;;;;;;;;9.60;99.90;;;;;;5055248;28;20414;-78
2023/11/01 01:38:21;;;;;;;1.65;0.90;;;9.50;99.90;;;;;;5054620;28;20427;-76
2023/11/01 01:40:47;;;;;;;2.97;0.82;;;9.50;99.90;;;;;;5052751;28;20119;-76
2023/11/01 01:43:17;;;;;;;;;;;9.50;99.90;;;;;;5051513;28;20025;-76
2023/11/01 01:45:45;;;;;;;7.22;1.10;;;9.50;99.90;;;;;;5051450;28;20058;-76
2023/11/01 01:48:12;;;;;;;3.33;1.20;;;9.50;99.90;;;;;;5051568;28;20385;-77
2023/11/01 01:50:38;;;;;;;4.10;1.13;;;9.50;99.90;;;;;;5053303;28;20024;-76
2023/11/01 01:53:04;;;;;;;6.20;1.45;;;9.60;99.90;;;;;;5051490;28;20495;-75
2023/11/01 01:55:30;;;;;;;;;;;9.60;99.90;;;;;;5053248;28;20037;-75
2023/11/01 01:57:57;;;;;;;2.92;1.63;;;9.60;99.90;;;;;;5053012;28;19924;-77
2023/11/01 02:00:24;;;;;;;2.92;1.30;;;9.60;99.90;;;;;;5053379;28;20094;-76
2023/11/01 02:02:52;;;;;;;1.95;1.08;;;9.60;99.90;;;;;;5050734;28;20040;-76
2023/11/01 02:05:18;;;;;;;2.47;1.40;;;9.70;99.90;;;;;;5057585;28;20397;-75
2023/11/01 02:07:44;;;;;;;8.32;1.13;;;9.70;99.90;;;;;;5072053;28;20032;-76
2023/11/01 02:10:14;;;;;;;;;;;9.70;99.90;;;;;;5064950;28;20040;-76
2023/11/01 02:12:40;;;;;;;4.70;1.65;;;9.70;99.90;;;;;;5060913;28;19909;-77
2023/11/01 02:15:07;;;;;;;1.70;1.20;;;9.70;99.90;;;;;;5068077;28;20105;-76
2023/11/01 02:17:33;;;;;;;3.00;1.40;;;9.70;99.90;;;;;;5063518;28;20086;-77
2023/11/01 02:20:00;;;;;;;2.33;0.93;;;9.70;99.90;;;;;;5051668;28;20504;-76
2023/11/01 02:22:26;;;;;;;2.03;1.10;;;9.70;99.90;;;;;;5051615;28;20025;-76
2023/11/01 02:24:53;;;;;;;;;;;9.70;99.90;;;;;;5051304;28;20078;-76
2023/11/01 02:27:18;;;;;;;4.00;1.40;;;9.70;99.90;;;;;;5059066;28;19909;-76
2023/11/01 02:29:44;;;;;;;;;;;9.70;99.90;;;;;;5061580;28;20875;-75
2023/11/01 02:32:09;;;;;;;2.38;1.27;;;9.80;99.90;;;;;;5059658;28;20352;-75
2023/11/01 02:34:36;;;;;;;;;;;9.70;99.90;;;;;;5063886;28;20021;-75
2023/11/01 02:37:02;;;;;;;5.20;1.17;;;9.70;99.90;;;;;;5060977;28;20376;-76
2023/11/01 02:39:29;;;;;;;2.00;1.02;;;9.70;99.90;;;;;;5063337;28;20378;-77
2023/11/01 02:41:54;;;;;;;3.03;1.15;;;9.70;99.90;;;;;;5061369;28;20077;-76
2023/11/01 02:44:20;;;;;;;;;;;9.70;99.90;;;;;;5057773;28;20052;-75
2023/11/01 02:46:46;;;;;;;6.05;1.45;;;9.70;99.90;;;;;;5062030;28;19905;-76
2023/11/01 02:49:11;;;;;;;;;;;9.60;99.90;;;;;;5059958;28;20031;-76
2023/11/01 02:51:37;;;;;;;2.17;0.80;;;9.60;99.90;;;;;;5063117;28;19905;-77
2023/11/01 02:54:03;;;;;;;;;;;9.60;99.90;;;;;;5061002;28;20021;-77
2023/11/01 02:56:29;;;;;;;3.28;1.20;;;9.50;99.90;;;;;;5060306;28;19957;-76
2023/11/01 02:58:54;;;;;;;7.50;1.10;;;9.50;99.90;;;;;;5063292;28;20032;-77
2023/11/01 03:01:21;;;;;;;;;;;9.40;99.90;;;;;;5062665;28;20024;-76
2023/11/01 03:03:48;;;;;;;1.88;1.10;;;9.40;99.90;;;;;;5060782;28;20419;-76
2023/11/01 03:06:14;;;;;;;2.42;1.10;;;9.40;99.90;;;;;;5063936;28;20029;-76
2023/11/01 03:08:40;;;;;;;;;;;9.40;99.90;;;;;;5062984;28;20112;-76
2023/11/01 03:11:05;;;;;;;5.25;1.33;;;9.40;99.90;;;;;;5061014;28;19919;-76
2023/11/01 03:13:31;;;;;;;;;;;9.40;99.90;;;;;;5064530;28;20028;-76
2023/11/01 03:15:56;;;;;;;5.57;1.25;;;9.30;99.90;;;;;;5058890;28;19908;-76
2023/11/01 03:18:22;;;;;;;;;;;9.30;99.90;;;;;;5061449;28;20161;-76
2023/11/01 03:20:47;;;;;;;2.65;1.08;;;9.30;99.90;;;;;;5062907;28;19937;-76
2023/11/01 03:23:13;;;;;;;;;;;9.30;99.90;;;;;;5069920;28;20036;-76
2023/11/01 03:25:39;;;;;;;2.85;0.95;;;9.20;99.90;;;;;;5073810;28;19913;-76
2023/11/01 03:28:04;;;;;;;;;;;9.20;99.90;;;;;;5074037;28;20021;-76
2023/11/01 03:30:30;;;;;;;8.75;1.30;;;9.20;99.90;;;;;;5073686;28;20566;-76
2023/11/01 03:32:55;;;;;;;;;;;9.30;99.90;;;;;;5073720;28;20446;-75
2023/11/01 03:35:21;;;;;;;3.42;1.55;;;9.20;99.90;;;;;;5073434;28;19965;-76
2023/11/01 03:37:46;;;;;;;;;;;9.40;99.90;;;;;;5072838;28;20032;-76
2023/11/01 03:40:12;;;;;;;5.93;1.35;;;9.40;99.90;;;;;;5073329;28;19915;-76
2023/11/01 03:42:39;;;;;;;;;;;9.40;99.90;;;;;;5072899;28;20504;-76
2023/11/01 03:45:05;;;;;;;1.80;1.20;;;9.40;99.90;;;;;;5071876;28;20296;-76
2023/11/01 03:47:31;;;;;;;3.22;1.23;;;9.40;99.90;;;;;;5068200;28;20044;-76
2023/11/01 03:49:57;;;;;;;;;;;9.40;99.90;;;;;;5072316;28;20021;-76
2023/11/01 03:52:23;;;;;;;4.57;1.27;;;9.50;99.90;;;;;;5071352;28;19908;-76
2023/11/01 03:54:48;;;;;;;;;;;9.40;99.90;;;;;;5068348;28;20790;-76
2023/11/01 03:57:14;;;;;;;3.58;1.45;;;9.40;99.90;;;;;;5068873;28;19909;-77
2023/11/01 03:59:39;;;;;;;;;;;9.50;99.90;;;;;;5071865;28;20047;-76
2023/11/01 04:02:05;;;;;;;2.83;1.13;;;9.50;99.90;;;;;;5071758;28;19915;-76
2023/11/01 04:04:31;;;;;;;;;;;9.40;99.90;;;;;;5072107;28;20047;-76
2023/11/01 04:06:56;;;;;;;4.78;1.00;;;9.50;99.90;;;;;;5070718;28;20285;-75
2023/11/01 04:09:22;;;;;;;2.10;1.02;;;9.40;99.90;;;;;;5070960;28;20028;-76
2023/11/01 04:11:47;;;;;;;;;;;9.40;99.90;;;;;;5072494;28;20020;-77
2023/11/01 04:14:14;;;;;;;3.42;0.90;;;9.40;99.90;;;;;;5069726;28;20513;-76
2023/11/01 04:16:40;;;;;;;3.00;1.00;;;9.40;99.90;;;;;;5063124;28;20126;-76
2023/11/01 04:19:05;;;;;;;;;;;9.40;99.90;;;;;;5062198;28;20584;-77
2023/11/01 04:21:31;;;;;;;3.60;1.33;;;9.40;99.90;;;;;;5063108;28;19916;-75
2023/11/01 04:23:56;;;;;;;;;;;9.40;99.90;;;;;;5064355;28;20024;-77
2023/11/01 04:26:22;;;;;;;2.08;1.13;;;9.40;99.90;;;;;;5062820;28;19999;-76
2023/11/01 04:28:48;;;;;;;;;;;9.40;99.90;;;;;;5062924;28;20033;-76
2023/11/01 04:31:15;;;;;;;4.60;1.10;;;9.40;99.90;;;;;;5069371;28;19912;-76
2023/11/01 04:33:41;;;;;;;2.35;1.20;;;9.40;99.90;;;;;;5073224;28;20029;-76
2023/11/01 04:36:09;;;;;;;;;;;9.40;99.90;;;;;;5073878;28;20450;-77
2023/11/01 04:38:36;;;;;;;;;;;9.40;99.90;;;;;;5073448;28;20384;-76
2023/11/01 04:41:02;;;;;;;;;;;9.40;99.90;;;;;;5074845;28;19908;-76
2023/11/01 04:43:29;;;;;;;;;;;9.40;99.90;;;;;;5074023;28;19908;-76
2023/11/01 04:45:55;;;;;;;;;;;9.40;99.90;;;;;;5075154;28;19904;-77
2023/11/01 04:48:21;;;;;;;;;;;9.50;99.90;;;;;;5075283;28;19927;-76
2023/11/01 04:50:48;;;;;;;;;;;9.50;99.90;;;;;;5073756;28;20372;-76
2023/11/01 04:53:17;;;;;;;;;;;9.60;99.90;;;;;;5065398;28;19913;-76
2023/11/01 04:55:43;;;;;;;;;;;9.50;99.90;;;;;;5053585;28;20258;-76
2023/11/01 04:58:08;;;;;;;;;;;9.50;99.90;;;;;;5054504;28;20015;-76
2023/11/01 05:00:34;;;;;;;;;;;9.50;99.90;;;;;;5053613;28;19951;-77
2023/11/01 05:02:59;;;;;;;;;;;9.50;99.90;;;;;;5053372;28;19999;-75
2023/11/01 05:05:25;;;;;;;;;;;9.50;99.90;;;;;;5053128;28;20008;-76
2023/11/01 05:07:51;;;;;;;;;;;9.40;99.90;;;;;;5054482;28;19987;-76
2023/11/01 05:10:17;;;;;;;;;;;9.40;99.90;;;;;;5054380;28;20361;-74
2023/11/01 05:12:42;;;;;;;;;;;9.40;99.90;;;;;;5054081;28;19911;-76
2023/11/01 05:15:08;;;;;;;;;;;9.30;99.90;;;;;;5055702;28;20004;-77
2023/11/01 05:17:34;;;;;;;;;;;9.30;99.90;;;;;;5054176;28;19908;-76
2023/11/01 05:19:59;;;;;;;;;;;9.30;99.90;;;;;;5052212;28;19938;-75
2023/11/01 05:22:25;;;;;;;;;;;9.20;99.90;;;;;;5051247;28;20349;-76
2023/11/01 05:24:51;;;;;;;;;;;9.20;99.90;;;;;;5052521;28;20042;-76
2023/11/01 05:27:17;;;;;;;;;;;9.20;99.90;;;;;;5051916;28;19905;-76
2023/11/01 05:29:43;;;;;;;;;;;9.30;99.90;;;;;;5050681;28;20348;-76
2023/11/01 05:32:08;;;;;;;;;;;9.30;99.90;;;;;;5051856;28;19916;-76
2023/11/01 05:34:34;;;;;;;;;;;9.30;99.90;;;;;;5051235;28;19927;-76
2023/11/01 05:37:00;;;;;;;;;;;9.10;99.90;;;;;;5051972;28;19932;-76
2023/11/01 05:39:25;;;;;;;;;;;9.10;99.90;;;;;;5050895;28;19920;-75
2023/11/01 05:41:54;;;;;;;;;;;9.10;99.90;;;;;;5050815;28;19928;-76
2023/11/01 05:44:19;;;;;;;;;;;9.00;99.90;;;;;;5052055;28;19908;-77
2023/11/01 05:46:45;;;;;;;;;;;9.10;99.90;;;;;;5050822;28;19915;-76
2023/11/01 05:49:11;;;;;;;;;;;9.00;99.90;;;;;;5052144;28;20015;-76
2023/11/01 05:51:37;;;;;;;;;;;9.00;99.90;;;;;;5052210;28;19905;-76
2023/11/01 05:54:02;;;;;;;;;;;9.00;99.90;;;;;;5051772;28;20333;-76
2023/11/01 05:56:28;;;;;;;;;;;9.20;99.90;;;;;;5051905;28;20379;-76
2023/11/01 05:58:57;;;;;;;;;;;9.20;99.90;;;;;;5051622;28;19983;-76
2023/11/01 06:01:24;;;;;;;;;;;9.00;99.90;;;;;;5050988;28;19962;-76
2023/11/01 06:03:50;;;;;;;;;;;9.00;99.90;;;;;;5050687;28;19908;-75
2023/11/01 06:06:19;;;;;;;;;;;9.00;99.90;;;;;;5052156;28;20007;-76
2023/11/01 06:08:44;;;;;;;;;;;9.00;99.90;;;;;;5050843;28;20339;-76
2023/11/01 06:11:10;;;;;;;;;;;9.10;99.90;;;;;;5051722;28;19912;-76
2023/11/01 06:13:35;;;;;;;;;;;9.00;99.90;;;;;;5050532;28;19908;-76
2023/11/01 06:16:04;;;;;;;;;;;9.20;99.90;;;;;;5050726;28;19909;-76
2023/11/01 06:18:31;;;;;;;;;;;9.20;99.90;;;;;;5052243;28;19932;-76
2023/11/01 06:20:56;;;;;;;;;;;9.30;99.90;;;;;;5058780;28;19909;-76
2023/11/01 06:23:22;;;;;;;;;;;9.50;99.90;;;;;;5072061;28;19926;-76
2023/11/01 06:25:48;;;;;;;;;;;9.60;99.90;;;;;;5070916;28;20011;-76
2023/11/01 06:28:14;;;;;;;;;;;9.90;99.90;;;;;;5072366;28;19911;-75
2023/11/01 06:30:40;;;;;;;;;;;10.10;99.90;;;;;;5072080;28;19908;-75
2023/11/01 06:33:06;;;;;;;;;;;10.30;99.90;;;;;;5057336;28;19955;-75
2023/11/01 06:35:31;;;;;;;;;;;10.60;99.90;;;;;;5049840;28;19998;-75
2023/11/01 06:37:57;;;;;;;;;;;10.80;99.90;;;;;;5050993;28;19920;-76
2023/11/01 06:40:23;;;;;;;;;;;11.10;99.90;;;;;;5051337;28;19928;-76
2023/11/01 06:42:48;;;;;;;;;;;11.40;99.90;;;;;;5051236;28;20068;-77
2023/11/01 06:45:14;;;;;;;;;;;11.70;99.90;;;;;;5053260;28;19924;-79
2023/11/01 06:47:41;;;;;;;;;;;12.00;99.90;;;;;;5052590;28;19915;-77
2023/11/01 06:50:07;;;;;;;;;;;12.60;99.90;;;;;;5051751;28;19912;-77
2023/11/01 06:52:32;;;;;;;;;;;12.80;99.90;;;;;;5052358;28;19962;-76
2023/11/01 06:54:58;;;;;;;;;;;12.90;99.90;;;;;;5051128;28;20003;-76
2023/11/01 06:57:23;;;;;;;;;;;12.90;99.90;;;;;;5054904;28;19915;-76
2023/11/01 06:59:49;;;;;;;;;;;12.80;99.90;;;;;;5052459;28;20381;-76
2023/11/01 07:02:14;;;;;;;;;;;12.90;99.90;;;;;;5065868;28;19913;-76
2023/11/01 07:04:40;;;;;;;;;;;12.90;99.90;;;;;;5057636;28;19909;-77
2023/11/01 07:07:05;;;;;;;;;;;12.70;99.90;;;;;;5066981;28;19905;-76
2023/11/01 07:09:31;;;;;;;;;;;12.70;99.90;;;;;;5053242;28;19927;-77
2023/11/01 07:11:57;;;;;;;;;;;12.60;99.90;;;;;;5053227;28;20004;-76
2023/11/01 07:14:22;;;;;;;;;;;12.80;99.90;;;;;;5051413;28;19909;-77
2023/11/01 07:16:48;;;;;;;;;;;13.10;99.90;;;;;;5053093;28;19986;-77
2023/11/01 07:19:14;;;;;;;;;;;13.50;99.90;;;;;;5052832;28;20346;-78
2023/11/01 07:21:42;;;;;;;;;;;13.80;99.90;;;;;;5052824;28;19915;-76
2023/11/01 07:24:08;;;;;;;;;;;13.80;99.90;;;;;;5053602;28;20739;-77
2023/11/01 07:26:34;;;;;;;;;;;13.80;99.90;;;;;;5053585;28;19960;-77
2023/11/01 07:28:59;;;;;;;;;;;13.90;99.90;;;;;;5052864;28;19944;-76
2023/11/01 07:31:25;;;;;;;;;;;13.70;99.90;;;;;;5050761;28;19927;-76
2023/11/01 07:33:51;;;;;;;;;;;13.60;99.90;;;;;;5080460;28;19915;-76
2023/11/01 07:36:17;;;;;;;;;;;13.50;99.90;;;;;;5064063;28;19987;-78
2023/11/01 07:38:44;;;;;;;;;;;13.50;99.90;;;;;;5067236;28;19916;-77
2023/11/01 07:41:09;;;;;;;;;;;13.50;99.90;;;;;;5070689;28;19916;-77
2023/11/01 07:43:35;;;;;;;;;;;13.40;99.90;;;;;;5072937;28;19909;-77
2023/11/01 07:46:01;;;;;;;;;;;13.50;99.90;;;;;;5074571;28;19904;-76
2023/11/01 07:48:26;;;;;;;;;;;13.40;99.90;;;;;;5073374;28;20308;-76
2023/11/01 07:50:52;;;;;;;;;;;13.60;99.90;;;;;;5074925;28;19931;-77
2023/11/01 07:53:17;;;;;;;;;;;13.70;99.90;;;;;;5062647;28;20280;-76
2023/11/01 07:55:43;;;;;;;;;;;13.80;99.90;;;;;;5053964;28;20279;-76
2023/11/01 07:58:08;;;;;;;;;;;13.80;99.90;;;;;;5053339;28;19912;-76
2023/11/01 08:00:38;;;;;;;;;;;13.70;99.90;;;;;;5051910;28;19915;-77
2023/11/01 08:03:03;;;;;;;;;;;13.70;99.90;;;;;;5053425;28;19909;-77
2023/11/01 08:05:29;;;;;;;;;;;13.70;99.90;;;;;;5051992;28;20349;-76
2023/11/01 08:07:55;;;;;;;;;;;13.70;99.90;;;;;;5052525;28;19927;-77
2023/11/01 08:10:21;;;;;;;;;;;13.90;99.90;;;;;;5053984;28;19939;-76
2023/11/01 08:12:46;;;;;;;;;;;14.00;99.90;;;;;;5053147;28;20369;-76
2023/11/01 08:15:12;;;;;;;;;;;14.10;99.90;;;;;;5052458;28;19915;-76
2023/11/01 08:17:38;;;;;;;;;;;14.30;99.90;;;;;;5053079;28;20349;-76
2023/11/01 08:20:04;;;;;;;;;;;14.60;99.90;;;;;;5052722;28;19924;-77
2023/11/01 08:22:29;;;;;;;;;;;14.70;99.90;;;;;;5053858;28;19962;-76
2023/11/01 08:24:55;;;;;;;;;;;14.70;99.90;;;;;;5053891;28;20384;-77
2023/11/01 08:27:21;;;;;;;;;;;14.70;99.90;;;;;;5053544;28;19908;-76
2023/11/01 08:29:46;;;;;;;;;;;14.70;99.90;;;;;;5052363;28;19908;-77
2023/11/01 08:32:12;;;;;;;;;;;14.80;99.90;;;;;;5053004;28;19911;-77
2023/11/01 08:34:37;;;;;;;;;;;15.00;99.90;;;;;;5053286;28;19943;-76
2023/11/01 08:37:04;;;;;;;;;;;15.10;99.90;;;;;;5053162;28;19929;-77
2023/11/01 08:39:30;;;;;;;;;;;15.20;99.90;;;;;;5067557;28;19927;-78
2023/11/01 08:41:55;;;;;;;;;;;15.20;99.90;;;;;;5059041;28;20003;-77
2023/11/01 08:44:21;;;;;;;;;;;15.40;99.90;;;;;;5068561;28;20383;-77
2023/11/01 08:46:46;;;;;;;;;;;15.80;99.90;;;;;;5074118;28;19961;-76
2023/11/01 08:49:13;;;;;;;;;;;16.50;99.90;;;;;;5073179;28;19908;-77
2023/11/01 08:51:39;;;;;;;;;;;17.20;98.70;;;;;;5072892;28;19915;-77
2023/11/01 08:54:05;;;;;;;;;;;17.60;96.30;;;;;;5074845;28;20330;-77
2023/11/01 08:56:34;;;;;;;;;;;17.60;95.60;;;;;;5074548;28;20020;-77
2023/11/01 08:58:59;;;;;;;;;;;17.40;95.60;;;;;;5067160;28;19917;-77
2023/11/01 09:01:25;;;;;;;;;;;17.30;96.40;;;;;;5058029;28;20391;-78
2023/11/01 09:03:53;;;;;;;;;;;17.10;97.20;;;;;;5071403;28;19908;-78
2023/11/01 09:06:19;;;;;;;;;;;16.90;95.70;;;;;;5068442;28;19924;-77
2023/11/01 09:08:45;;;;;;;;;;;16.70;97.20;;;;;;5054091;28;19905;-77
2023/11/01 09:11:10;;;;;;;;;;;16.50;95.90;;;;;;5061113;28;19939;-77
2023/11/01 09:13:36;;;;;;;;;;;16.40;97.10;;;;;;5063489;28;19915;-77
2023/11/01 09:16:01;;;;;;;;;;;16.10;96.40;;;;;;5058226;28;19912;-76
2023/11/01 09:18:27;;;;;;;;;;;16.00;97.60;;;;;;5057122;28;19966;-77
2023/11/01 09:20:52;;;;;;;;;;;15.90;97.50;;;;;;5062704;28;20388;-77
2023/11/01 09:23:18;;;;;;;;;;;15.80;98.40;;;;;;5079953;28;19920;-77
2023/11/01 09:25:44;;;;;;;;;;;15.80;98.00;;;;;;5054037;28;19912;-77
2023/11/01 09:28:10;;;;;;;;;;;15.70;99.10;;;;;;5059437;28;19916;-77
2023/11/01 09:30:38;;;;;;;;;;;15.70;99.90;;;;;;5063523;28;19908;-77
2023/11/01 09:33:04;;;;;;;;;;;15.70;99.90;;;;;;5062495;28;19923;-77
2023/11/01 09:35:31;;;;;;;;;;;15.60;99.90;;;;;;5072283;28;20430;-77
2023/11/01 09:37:56;;;;;;;;;;;15.60;98.70;;;;;;5063720;28;19920;-77
2023/11/01 09:40:22;;;;;;;;;;;15.50;98.10;;;;;;5065447;28;19958;-78
2023/11/01 09:42:48;;;;;;;;;;;15.50;95.70;;;;;;5061193;28;19908;-76
2023/11/01 09:45:13;;;;;;;;;;;15.40;96.30;;;;;;5061744;28;19908;-77
2023/11/01 09:47:39;;;;;;;;;;;15.40;96.60;;;;;;5057495;28;20371;-77
2023/11/01 09:50:06;;;;;;;;;;;15.40;97.00;;;;;;5055894;28;20007;-77
2023/11/01 09:52:32;;;;;;;;;;;15.40;97.20;;;;;;5053017;28;20431;-77
2023/11/01 09:54:57;;;;;;;;;;;15.50;99.20;;;;;;5054956;28;19904;-77
2023/11/01 09:57:24;;;;;;;;;;;15.60;99.90;;;;;;5053905;28;20430;-77
2023/11/01 09:59:50;;;;;;;;;;;15.50;99.90;;;;;;5053513;28;19923;-77
2023/11/01 10:02:17;;;;;;;;;;;15.50;99.90;;;;;;5069326;28;19995;-77
2023/11/01 10:04:44;;;;;;;;;;;15.50;99.90;;;;;;5071957;28;19947;-77
2023/11/01 10:07:10;;;;;;;;;;;15.50;99.90;;;;;;5071957;28;20249;-77
2023/11/01 10:09:36;;;;;;;;;;;15.50;99.90;;;;;;5070008;28;20273;-76
2023/11/01 10:12:03;;;;;;;;;;;15.60;99.90;;;;;;5069994;28;19904;-76
2023/11/01 10:14:29;;;;;;;;;;;15.60;99.90;;;;;;5071132;28;19911;-75
2023/11/01 10:16:58;;;;;;;;;;;15.60;99.90;;;;;;5068682;28;19915;-76
2023/11/01 10:19:27;;;;;;;;;;;15.60;99.90;;;;;;5071584;28;19971;-76
2023/11/01 10:21:53;;;;;;;;;;;15.70;99.90;;;;;;5070265;28;20452;-76
2023/11/01 10:24:20;;;;;;;;;;;15.70;99.90;;;;;;5072190;28;20117;-77
2023/11/01 10:26:45;;;;;;;;;;;15.80;99.90;;;;;;5071468;28;19954;-76
2023/11/01 10:29:11;;;;;;;;;;;15.80;99.90;;;;;;5071905;28;19967;-76
2023/11/01 10:31:36;;;;;;;;;;;15.70;99.90;;;;;;5071734;28;20398;-76
2023/11/01 10:34:12;;;;;;;;;;;15.80;99.90;;;;;;5071235;28;20366;-77
2023/11/01 10:36:50;;;;;;;;;;;15.80;99.90;;;;;;5070380;28;19966;-76
2023/11/01 10:39:17;;;;;;;;;;;15.80;99.90;;;;;;5060065;28;20301;-76
2023/11/01 10:41:46;;;;;;;;;;;15.80;99.90;;;;;;5051145;28;19941;-77
2023/11/01 10:44:12;;;;;;;;;;;15.70;99.90;;;;;;5066170;28;20368;-75
2023/11/01 10:46:38;;;;;;;;;;;15.60;99.90;;;;;;5051988;28;20293;-77
2023/11/01 10:49:04;;;;;;;;;;;15.50;99.90;;;;;;5052001;28;20367;-76
2023/11/01 10:51:30;;;;;;;;;;;15.40;99.90;;;;;;5055505;28;19912;-76
2023/11/01 10:53:56;;;;;;;;;;;15.40;99.90;;;;;;5051306;28;19909;-76
2023/11/01 10:56:21;;;;;;;;;;;15.30;99.90;;;;;;5066870;28;19916;-76
2023/11/01 10:58:48;;;;;;;;;;;15.30;99.90;;;;;;5066909;28;20408;-76
2023/11/01 11:01:29;;;;;;;;;;;15.30;99.90;;;;;;5051837;28;19908;-78
2023/11/01 11:04:02;;;;;;;;;;;15.40;99.90;;;;;;5052356;28;19911;-77
2023/11/01 11:06:33;;;;;;;;;;;15.50;99.90;;;;;;5066822;28;19951;-76
2023/11/01 11:09:19;;;;;;;;;;;15.50;99.90;;;;;;5051750;28;20270;-76
2023/11/01 11:12:04;;;;;;;;;;;15.50;99.90;;;;;;5050045;28;19923;-76
2023/11/01 11:14:50;;;;;;;;;;;15.60;99.90;;;;;;5066430;28;19962;-76
2023/11/01 11:17:18;;;;;;;;;;;15.70;99.90;;;;;;5051558;28;20419;-77
2023/11/01 11:20:03;;;;;;;;;;;15.70;99.90;;;;;;5070605;28;19916;-76
2023/11/01 11:22:47;;;;;;;;;;;15.80;99.90;;;;;;5070918;28;20316;-76
2023/11/01 11:25:33;;;;;;;;;;;15.80;99.90;;;;;;5071250;28;19915;-77
2023/11/01 11:28:02;;;;;;;;;;;15.80;99.90;;;;;;5055071;28;19909;-77
2023/11/01 11:30:46;;;;;;;;;;;15.90;99.90;;;;;;5055891;28;19909;-77
2023/11/01 11:33:12;;;;;;;;;;;15.90;99.90;;;;;;5055344;28;19953;-75
2023/11/01 11:35:38;;;;;;;;;;;15.90;99.90;;;;;;5053666;28;20296;-77
2023/11/01 11:38:22;;;;;;;;;;;15.90;99.90;;;;;;5070122;28;20363;-77
2023/11/01 11:41:08;;;;;;;;;;;15.90;99.90;;;;;;5054615;28;19919;-76
2023/11/01 11:43:51;;;;;;;;;;;16.00;99.90;;;;;;5055256;28;19904;-77
2023/11/01 11:46:39;;;;;;;;;;;16.10;99.90;;;;;;5069511;28;19948;-76
2023/11/01 11:49:06;;;;;;;;;;;16.30;99.90;;;;;;5070291;28;19931;-76
2023/11/01 11:51:35;;;;;;;;;;;16.30;99.90;;;;;;5070010;28;19931;-77
2023/11/01 11:54:11;;;;;;;;;;;16.30;99.90;;;;;;5069586;28;20373;-76
2023/11/01 11:56:37;;;;;;;;;;;16.10;99.90;;;;;;5053642;28;19927;-75
2023/11/01 11:59:04;;;;;;;;;;;16.00;99.90;;;;;;5054652;28;20364;-78
2023/11/01 12:01:29;;;;;;;;;;;15.80;99.90;;;;;;5053504;28;19912;-78
2023/11/01 12:03:56;;;;;;;;;;;15.70;99.90;;;;;;5069540;28;19954;-77
2023/11/01 12:06:24;;;;;;;;;;;15.60;99.90;;;;;;5069653;28;19908;-76
2023/11/01 12:08:50;;;;;;;;;;;15.60;99.90;;;;;;5070095;28;19935;-77
2023/11/01 12:11:16;;;;;;;;;;;15.70;99.90;;;;;;5070144;28;19905;-77
2023/11/01 12:13:48;;;;;;;;;;;15.80;99.90;;;;;;5070305;28;20038;-77
2023/11/01 12:16:25;;;;;;;;;;;15.80;99.90;;;;;;5052903;28;19905;-76
2023/11/01 12:19:10;;;;;;;;;;;15.80;99.80;;;;;;5053927;28;19920;-76
2023/11/01 12:21:43;;;;;;;;;;;15.80;99.80;;;;;;5051905;28;19913;-76
2023/11/01 12:24:14;;;;;;;;;;;15.90;99.90;;;;;;5051791;28;19919;-76
2023/11/01 12:26:59;;;;;;;;;;;15.90;98.10;;;;;;5068653;28;20332;-76
2023/11/01 12:29:41;;;;;;;;;;;16.00;99.70;;;;;;5068199;28;19909;-76
2023/11/01 12:32:16;;;;;;;;;;;16.20;99.90;;;;;;5069436;28;20300;-76
2023/11/01 12:34:48;;;;;;;;;;;16.30;98.90;;;;;;5069061;28;19908;-78
2023/11/01 12:37:21;;;;;;;;;;;16.40;97.90;;;;;;5069243;28;19905;-77
2023/11/01 12:40:11;;;;;;;;;;;16.40;98.40;;;;;;5068824;28;19916;-76
2023/11/01 12:42:38;;;;;;;;;;;16.50;98.10;;;;;;5053527;28;19916;-77
2023/11/01 12:45:04;;;;;;;;;;;16.50;97.40;;;;;;5053919;28;19904;-77
2023/11/01 12:47:42;;;;;;;;;;;16.50;97.30;;;;;;5052197;28;19919;-76
2023/11/01 12:50:07;;;;;;;;;;;16.60;97.60;;;;;;5053311;28;19904;-77
2023/11/01 12:52:33;;;;;;;;;;;16.50;97.70;;;;;;5068456;28;20433;-77
2023/11/01 12:54:58;;;;;;;;;;;16.50;98.00;;;;;;5052825;28;19905;-77
2023/11/01 12:57:24;;;;;;;;;;;16.60;98.00;;;;;;5051953;28;19916;-76
2023/11/01 12:59:50;;;;;;;;;;;16.40;98.00;;;;;;5051723;28;20301;-76
2023/11/01 13:02:16;;;;;;;;;;;16.30;98.80;;;;;;5067660;28;20376;-76
2023/11/01 13:04:42;;;;;;;;;;;16.10;98.90;;;;;;5051539;28;19948;-77
2023/11/01 13:07:08;;;;;;;;;;;16.00;99.10;;;;;;5053528;28;20404;-77
2023/11/01 13:09:33;;;;;;;;;;;15.90;99.80;;;;;;5068633;28;19905;-77
2023/11/01 13:11:59;;;;;;;;;;;15.90;99.90;;;;;;5052692;28;19920;-77
2023/11/01 13:14:24;;;;;;;;;;;15.90;99.90;;;;;;5052704;28;20003;-76
2023/11/01 13:16:50;;;;;;;;;;;15.90;99.90;;;;;;5050873;28;20257;-76
2023/11/01 13:19:17;;;;;;;;;;;16.00;99.90;;;;;;5067998;28;19917;-77
2023/11/01 13:21:42;;;;;;;;;;;16.10;99.80;;;;;;5051897;28;19911;-77
2023/11/01 13:24:08;;;;;;;;;;;16.20;99.40;;;;;;5052552;28;19905;-77
2023/11/01 13:26:33;;;;;;;;;;;16.30;99.30;;;;;;5053745;28;19904;-76
2023/11/01 13:28:59;;;;;;;;;;;16.40;99.30;;;;;;5066870;28;19947;-76
2023/11/01 13:31:25;;;;;;;;;;;16.50;99.10;;;;;;5051056;28;20003;-77
2023/11/01 13:33:50;;;;;;;;;;;16.50;98.90;;;;;;5067900;28;20016;-77
2023/11/01 13:36:16;;;;;;;;;;;16.50;98.30;;;;;;5050789;28;19913;-77
2023/11/01 13:38:42;;;;;;;;;;;16.50;98.70;;;;;;5051628;28;19999;-77
2023/11/01 13:41:08;;;;;;;;;;;16.50;98.60;;;;;;5049568;28;20299;-76
2023/11/01 13:43:33;;;;;;;;;;;16.40;97.60;;;;;;5067128;28;19908;-77
2023/11/01 13:46:00;;;;;;;;;;;16.30;98.10;;;;;;5050885;28;19909;-76
2023/11/01 13:48:26;;;;;;;;;;;16.10;98.60;;;;;;5051375;28;19912;-77
2023/11/01 13:50:51;;;;;;;;;;;16.00;99.00;;;;;;5049538;28;19909;-76
2023/11/01 13:53:17;;;;;;;;;;;15.90;99.30;;;;;;5050426;28;19908;-76
2023/11/01 13:55:45;;;;;;;;;;;15.90;99.50;;;;;;5067116;28;19911;-77
2023/11/01 13:58:11;;;;;;;;;;;15.80;99.50;;;;;;5051215;28;19917;-76
2023/11/01 14:00:37;;;;;;;;;;;15.70;99.80;;;;;;5058840;28;20011;-76
2023/11/01 14:03:04;;;;;;;;;;;15.70;99.90;;;;;;5048764;28;20360;-75